Página principal
METAR-TAF:

METAR-TAF

Aeroportos :

Cidade de Ho Chi Minh, Vietname

Aeroporto Internacional Tan Son Nhat

latitude: 10-49N, longitude: 106-40E, altura: 19 m

Observação actual do tempo

O boletim foi feito há 21 minutos, às 00:30 UTC
Vento 5 kt de nordeste, variando entre nor-nordeste e este
Temperatura 26°C
Humidade 89%
Pressão 1011 hPa
Visibilidade: 8000 m
Poucas nuvensa uma altura de 1700 ft
Nuvens fragmentadasa uma altura de 5000 ft

METAR: VVTS 230030Z 05005KT 020V080 8000 FEW017 BKN050 26/24 Q1011 NOSIG

Hora: 07:51 (00:51 UTC)

Previsão

O boletim foi feito há 1 hora e 51 minutos, às 23:00 UTC
Previsão válida de 23 às 00 UTC a 24 às 06 UTC
Vento 6 kt de este
Visibilidade 10 km ou mais
Nuvens dispersasa uma altura de 1700 ft
Tornando-se
de 22 às 05 UTC a 22 às 06 UTC
Vento 10 kt de sudeste

TAF: VVTS 222300Z 2300/2406 08006KT 9999 SCT017 BECMG 2205/2206 14010KT

Observações e previsões do tempo de mais de 4000 aeroportos (mensagens METAR e TAF).

As estações disponíveis são os pontos amarelos e vermelhos sobre o mapa.

Mova o rato sobre o mapa para ver o nome da estação.

Depois clique no ponto para visualizar as observações e previsões meteorológicas.

Para alterar o mapa : clique nos botões verdes com uma cruz preta para aumentar o zoom; no botão verde com uma pitada de zoom; ou nas setas verdes para mapas adjacentes.


METAR-TAF: